Reading Regional Carl A Spaatz Field
KRDG : now visible

Airfield :











YOU CAN JOIN US ON...

 
LOGIN :

Register | Disclaimer

   EN    FR    IT 

 









Legend :    VFR   Marginal VFR   IFR   Intensive IFR   Very Intensive IFR
Visi :
Ceiling :
>= 8 km
>= 3000ft
5 to 8 km
1000 to 3000 ft
1500m to 5 km
500 to 1000 ft
800 to 1500m
200 to 500 ft
< 800m
< 200 ft
Symbols :   Thunderstorms  Fog  Heavy snow  Heavy precipitations  Wind > 20 kt






- Airport Elevation : 344 ft
- IATA code : RDG


KRDG - Reading Regional Carl A Spaatz Field

CURRENT METAR :
  • 170354Z 00000KT 10SM OVC050 03/M03 A3011 RMK AO2 SLP204 T00281028 $

EXPIRED METARs :
  • 170254Z 00000KT 10SM OVC060 03/M03 A3011 RMK AO2 SLP203 T00281028 53003 $
  • 170154Z 32004KT 10SM OVC065 03/M03 A3010 RMK AO2 SLP200 T00331033 $

TAF KRDG
Valid from the 17 at 00:00 until the 18 at 00:00 UTC


162320Z 1700/1724 VRB05KT P6SM BKN050
FM170500 VRB05KT P6SM SCT050
FM171000 34005KT P6SM SCT250



MET'MAP, your aeronautical weather chart ! - Copyright ORBIFLY December 2007 - Disclaimer

ORBIFLY MET'MAP TEAM :

Programming & Development : Alexandra Zaïnal
Concept & original design : Baudouin d'Aumeries
Assistance for programming : Marc-Olivier Méhu
Technical & hardware support : Manuel Goepfert

Contact : metmap@orbifly.com




SOURCES & CREDITS :

   NOAA       Earth
Advisory